Edinburgh Airport, United Kingdom

12:52 PM BST on September 18, 2014 (GMT +0100)
South Queensferry | Change Station
CLOSE
Current Station
Personal Weather Station
Location: Edinburgh, MIDLOTHIAN
Elevation: 89 ft
Nearby Weather Stations

Elev 89 ft 55.99 °N, 3.41 °W | Updated 1 minute ago

Light Drizzle
Light Drizzle
59.0 °F
Feels Like 59.0 °F
N
1.6
Wind Variable Wind from East
Gusts 6.0 mph

Today
High -- | Low -- °F
--% Chance of Precip.
Yesterday
High -- | Low -- °F
Precip. -- in
6:50 AM 7:23 PM
Waning Crescent, 27% visible
Pressure 29.95 in
Visibility 1.0 miles
Clouds Few 100 ft
Overcast 200 ft
Dew Point 59 °F
Humidity 99%
Rainfall 0.00 in
Snow Depth Not available.
UV 1 out of 12
Pollen Not available.
Air Quality Not available.
Flu Activity Not available.
METAR EGQL 181127Z 09008KT 1600 0800NE -DZ FEW001 OVC002 15/14 Q1014 AMB

More Conditions Fewer Conditions

Pressure 29.95 in
Visibility 1.0 miles
Clouds Few 100 ft
Overcast 200 ft
Dew Point 59 °F
Humidity 99%
Rainfall 0.00 in
Snow Depth Not available.
UV 1 out of 12
Pollen Not available.
Air Quality Not available.
Flu Activity Not available.
METAR EGQL 181127Z 09008KT 1600 0800NE -DZ FEW001 OVC002 15/14 Q1014 AMB

More Conditions Fewer Conditions

10-Day Weather Forecast

Almanac

Astronomy

Sep. 18, 2014 Rise Set
Actual Time 6:50 AM BST 7:23 PM BST
Civil Twilight 6:13 AM BST 8:00 PM BST
Nautical Twilight 5:28 AM BST 8:45 PM BST
Astronomical Twilight 4:39 AM BST 9:33 PM BST
Moon 12:45 AM BST 4:45 PM BST
Length of Visible Light 13h 47m
Length of Day
12h 32m
Tomorrow will be 4m 36s shorter.
Waning Crescent, 27% of the Moon is Illuminated
Today
Waning Crescent
Sep 24
New
Oct 1
First Quarter
Oct 8
Full
Oct 15
Last Quarter

Yesterday's Extremes

Country Highs Country Lows

Community

WunderPhotos

Upload Photos

1,754,324 photos uploaded!

Nearby

Snow Depth

Not available.

Earthquake Activity

City Distance Mag. Time & Date
No recent earthquake activity has been reported nearby.
Minimum magnitude displayed is 2.5.

Coastal Water Temperatures

Place Temperature
No Stations Reporting

Nearby Weather Stations